Time,TemperatureF,DewpointF,PressureIn,WindDirection,WindDirectionDegrees,WindSpeedMPH,WindSpeedGustMPH,Humidity,HourlyPrecipIn,Conditions,Clouds,dailyrainin,SoftwareType,DateUTC
2014-10-31 00:02:00,42.5,32.3,30.06,WNW,299,5.6,10.4,67,0.00,CLR,,0.00,WeatherDisplay:10.37,2014-10-31 05:02:00,
2014-10-31 00:07:00,42.3,32.1,30.06,NNE,23,6.9,9.2,67,0.00,CLR,,0.00,WeatherDisplay:10.37,2014-10-31 05:07:00,
2014-10-31 00:12:00,41.9,32.1,30.06,North,350,5.8,13.6,68,0.00,CLR,,0.00,WeatherDisplay:10.37,2014-10-31 05:12:00,
2014-10-31 00:17:00,41.7,32.3,30.06,NW,304,5.0,8.1,69,0.00,CLR,,0.00,WeatherDisplay:10.37,2014-10-31 05:17:00,
2014-10-31 00:22:00,41.5,32.4,30.06,NNW,333,4.0,10.4,70,0.00,CLR,,0.00,WeatherDisplay:10.37,2014-10-31 05:22:00,
2014-10-31 00:27:00,41.4,32.3,30.06,NNW,333,6.0,10.0,70,0.00,CLR,,0.00,WeatherDisplay:10.37,2014-10-31 05:27:00,
2014-10-31 00:32:00,41.3,32.2,30.06,North,7,5.3,14.0,70,0.00,CLR,,0.00,WeatherDisplay:10.37,2014-10-31 05:32:00,
2014-10-31 00:37:00,41.2,32.2,30.06,NW,305,7.2,13.8,70,0.00,CLR,,0.00,WeatherDisplay:10.37,2014-10-31 05:37:00,
2014-10-31 00:42:00,41.2,32.2,30.06,North,1,6.5,11.5,70,0.00,CLR,,0.00,WeatherDisplay:10.37,2014-10-31 05:42:00,
2014-10-31 00:47:00,41.1,31.7,30.06,North,353,5.4,9.2,69,0.00,CLR,,0.00,WeatherDisplay:10.37,2014-10-31 05:47:00,
2014-10-31 00:52:00,41.1,32.1,30.06,NW,322,5.6,10.4,70,0.00,CLR,,0.00,WeatherDisplay:10.37,2014-10-31 05:52:00,
2014-10-31 00:57:00,41.0,31.2,30.06,North,356,7.6,17.3,68,0.00,CLR,,0.00,WeatherDisplay:10.37,2014-10-31 05:57:00,
2014-10-31 01:02:00,40.7,31.0,30.06,NW,305,7.4,11.5,68,0.00,CLR,,0.00,WeatherDisplay:10.37,2014-10-31 06:02:00,
2014-10-31 01:07:00,40.4,31.0,30.06,NW,313,9.0,13.8,69,0.00,CLR,,0.00,WeatherDisplay:10.37,2014-10-31 06:07:00,
2014-10-31 01:12:00,40.2,30.8,30.07,North,4,6.8,15.4,69,0.00,CLR,,0.00,WeatherDisplay:10.37,2014-10-31 06:12:00,
2014-10-31 01:17:00,40.0,31.0,30.07,West,277,8.1,16.1,70,0.00,CLR,,0.00,WeatherDisplay:10.37,2014-10-31 06:17:00,
2014-10-31 01:22:00,39.8,30.8,30.06,WNW,292,4.8,9.2,70,0.00,CLR,,0.00,WeatherDisplay:10.37,2014-10-31 06:22:00,
2014-10-31 01:27:00,39.8,30.8,30.07,West,280,2.8,11.5,70,0.00,CLR,,0.00,WeatherDisplay:10.37,2014-10-31 06:27:00,
2014-10-31 01:32:00,39.6,31.0,30.07,NNE,16,8.7,17.3,71,0.00,CLR,,0.00,WeatherDisplay:10.37,2014-10-31 06:32:00,
2014-10-31 01:37:00,39.5,30.9,30.08,NE,55,5.5,12.7,71,0.00,CLR,,0.00,WeatherDisplay:10.37,2014-10-31 06:37:00,
2014-10-31 01:42:00,39.3,29.6,30.08,North,359,9.5,18.4,68,0.00,CLR,,0.00,WeatherDisplay:10.37,2014-10-31 06:42:00,
2014-10-31 01:47:00,39.0,29.3,30.08,NNE,16,5.6,16.1,68,0.00,CLR,,0.00,WeatherDisplay:10.37,2014-10-31 06:47:00,
2014-10-31 01:52:00,38.7,28.7,30.08,NW,309,10.9,18.4,67,0.00,CLR,,0.00,WeatherDisplay:10.37,2014-10-31 06:52:00,
2014-10-31 01:57:00,38.4,28.4,30.08,NW,316,11.5,17.3,67,0.00,CLR,,0.00,WeatherDisplay:10.37,2014-10-31 06:57:00,
2014-10-31 02:02:00,38.2,28.6,30.08,NNW,330,9.7,18.4,68,0.00,CLR,,0.00,WeatherDisplay:10.37,2014-10-31 07:02:00,
2014-10-31 02:07:00,37.9,29.0,30.08,North,4,6.3,16.1,70,0.00,CLR,,0.00,WeatherDisplay:10.37,2014-10-31 07:07:00,
2014-10-31 02:12:00,37.8,29.6,30.09,NW,311,5.3,13.8,72,0.00,CLR,,0.00,WeatherDisplay:10.37,2014-10-31 07:12:00,
2014-10-31 02:17:00,37.6,29.7,30.09,NNE,13,6.9,11.5,73,0.00,CLR,,0.00,WeatherDisplay:10.37,2014-10-31 07:17:00,
2014-10-31 02:22:00,37.1,29.6,30.09,NNW,343,5.8,11.5,74,0.00,CLR,,0.00,WeatherDisplay:10.37,2014-10-31 07:22:00,
2014-10-31 02:27:00,36.7,29.5,30.09,NW,309,7.3,17.3,75,0.00,CLR,,0.00,WeatherDisplay:10.37,2014-10-31 07:27:00,
2014-10-31 02:32:00,36.4,29.2,30.10,North,360,8.5,12.7,75,0.00,CLR,,0.00,WeatherDisplay:10.37,2014-10-31 07:32:00,
2014-10-31 02:37:00,36.3,29.1,30.10,NW,318,6.8,15.0,75,0.00,CLR,,0.00,WeatherDisplay:10.37,2014-10-31 07:37:00,
2014-10-31 02:42:00,36.1,28.6,30.10,NW,323,8.6,11.5,74,0.00,CLR,,0.00,WeatherDisplay:10.37,2014-10-31 07:42:00,
2014-10-31 02:47:00,35.9,28.1,30.10,NNW,336,10.5,20.7,73,0.00,CLR,,0.00,WeatherDisplay:10.37,2014-10-31 07:47:00,
2014-10-31 02:52:00,35.8,27.7,30.10,North,360,6.8,13.8,72,0.00,CLR,,0.00,WeatherDisplay:10.37,2014-10-31 07:52:00,
2014-10-31 02:57:00,35.7,27.6,30.10,NW,312,11.1,16.1,72,0.00,CLR,,0.00,WeatherDisplay:10.37,2014-10-31 07:57:00,
2014-10-31 03:02:00,35.7,27.6,30.10,WSW,247,1.8,6.9,72,0.00,CLR,,0.00,WeatherDisplay:10.37,2014-10-31 08:02:00,
2014-10-31 03:07:00,35.5,27.4,30.11,West,280,4.3,11.5,72,0.00,CLR,,0.00,WeatherDisplay:10.37,2014-10-31 08:07:00,
2014-10-31 03:12:00,35.4,27.3,30.11,NNW,337,6.8,11.5,72,0.00,CLR,,0.00,WeatherDisplay:10.37,2014-10-31 08:12:00,
2014-10-31 03:17:00,35.3,27.5,30.11,WNW,302,3.3,9.2,73,0.00,CLR,,0.00,WeatherDisplay:10.37,2014-10-31 08:17:00,
2014-10-31 03:22:00,35.3,27.5,30.11,NW,322,5.4,10.4,73,0.00,CLR,,0.00,WeatherDisplay:10.37,2014-10-31 08:22:00,
2014-10-31 03:27:00,35.2,27.1,30.11,NNW,329,8.4,12.7,72,0.00,CLR,,0.00,WeatherDisplay:10.37,2014-10-31 08:27:00,
2014-10-31 03:32:00,35.1,26.6,30.11,NW,315,8.6,11.5,71,0.00,CLR,,0.00,WeatherDisplay:10.37,2014-10-31 08:32:00,
2014-10-31 03:37:00,35.0,26.2,30.11,WNW,284,7.5,12.7,70,0.00,CLR,,0.00,WeatherDisplay:10.37,2014-10-31 08:37:00,
2014-10-31 03:42:00,34.9,26.4,30.11,West,280,7.0,15.0,71,0.00,CLR,,0.00,WeatherDisplay:10.37,2014-10-31 08:42:00,
2014-10-31 03:47:00,34.8,26.0,30.11,NNW,335,6.6,10.4,70,0.00,CLR,,0.00,WeatherDisplay:10.37,2014-10-31 08:47:00,
2014-10-31 03:52:00,34.7,25.9,30.11,North,0,9.2,18.4,70,0.00,CLR,,0.00,WeatherDisplay:10.37,2014-10-31 08:52:00,
2014-10-31 03:57:00,34.6,25.8,30.11,North,360,7.6,16.1,70,0.00,CLR,,0.00,WeatherDisplay:10.37,2014-10-31 08:57:00,
2014-10-31 04:02:00,34.6,25.8,30.11,NNW,329,10.2,17.3,70,0.00,CLR,,0.00,WeatherDisplay:10.37,2014-10-31 09:02:00,
2014-10-31 04:07:00,34.5,25.7,30.11,NNW,328,10.2,18.4,70,0.00,CLR,,0.00,WeatherDisplay:10.37,2014-10-31 09:07:00,
2014-10-31 04:12:00,34.4,26.0,30.11,North,360,8.4,13.8,71,0.00,CLR,,0.00,WeatherDisplay:10.37,2014-10-31 09:12:00,
2014-10-31 04:17:00,34.3,25.9,30.12,NW,312,7.2,10.4,71,0.00,CLR,,0.00,WeatherDisplay:10.37,2014-10-31 09:17:00,
2014-10-31 04:22:00,34.2,26.1,30.12,NNW,339,8.9,15.0,72,0.00,CLR,,0.00,WeatherDisplay:10.37,2014-10-31 09:22:00,
2014-10-31 04:27:00,34.2,26.4,30.12,West,280,9.0,16.1,73,0.00,CLR,,0.00,WeatherDisplay:10.37,2014-10-31 09:27:00,
2014-10-31 04:32:00,33.9,28.4,30.13,NW,319,9.4,15.0,80,0.00,CLR,,0.00,WeatherDisplay:10.37,2014-10-31 09:32:00,
2014-10-31 04:37:00,33.3,29.6,30.13,North,1,7.6,12.7,86,0.00,CLR,,0.00,WeatherDisplay:10.37,2014-10-31 09:37:00,
2014-10-31 04:42:00,32.6,29.4,30.13,NNE,20,7.3,11.5,88,0.00,CLR,,0.00,WeatherDisplay:10.37,2014-10-31 09:42:00,
2014-10-31 04:47:00,32.0,29.4,30.13,NNE,25,6.5,11.4,90,0.00,CLR,,0.00,WeatherDisplay:10.37,2014-10-31 09:47:00,
2014-10-31 04:52:00,31.7,29.4,30.13,NNW,330,8.1,15.0,91,0.00,CLR,,0.00,WeatherDisplay:10.37,2014-10-31 09:52:00,
2014-10-31 04:57:00,31.5,29.4,30.14,NNW,335,6.3,16.1,92,0.00,CLR,,0.00,WeatherDisplay:10.37,2014-10-31 09:57:00,
2014-10-31 05:02:00,31.4,29.3,30.14,NNW,340,5.4,9.2,92,0.00,CLR,,0.00,WeatherDisplay:10.37,2014-10-31 10:02:00,
2014-10-31 05:07:00,31.4,29.3,30.14,North,360,4.2,8.1,92,0.00,CLR,,0.00,WeatherDisplay:10.37,2014-10-31 10:07:00,
2014-10-31 05:13:00,31.3,29.5,30.14,NW,308,7.8,15.0,93,0.00,CLR,,0.00,WeatherDisplay:10.37,2014-10-31 10:13:00,
2014-10-31 05:18:00,31.3,29.5,30.14,WNW,291,7.3,12.7,93,0.00,CLR,,0.00,WeatherDisplay:10.37,2014-10-31 10:18:00,
2014-10-31 05:23:00,31.3,29.8,30.15,NW,313,7.1,13.8,94,0.00,CLR,,0.00,WeatherDisplay:10.37,2014-10-31 10:23:00,
2014-10-31 05:28:00,31.3,29.8,30.15,WNW,301,8.6,13.8,94,0.00,CLR,,0.00,WeatherDisplay:10.37,2014-10-31 10:28:00,
2014-10-31 05:33:00,31.4,29.9,30.15,SW,224,6.6,11.5,94,0.00,CLR,,0.00,WeatherDisplay:10.37,2014-10-31 10:33:00,
2014-10-31 05:38:00,31.4,29.9,30.15,NNE,25,9.6,16.1,94,0.00,CLR,,0.00,WeatherDisplay:10.37,2014-10-31 10:38:00,
2014-10-31 05:43:00,31.5,30.0,30.15,NE,45,8.4,13.8,94,0.00,CLR,,0.00,WeatherDisplay:10.37,2014-10-31 10:43:00,
2014-10-31 05:48:00,31.4,29.6,30.16,NNW,337,9.7,16.1,93,0.00,CLR,,0.00,WeatherDisplay:10.37,2014-10-31 10:48:00,
2014-10-31 05:53:00,31.4,29.6,30.16,North,350,6.9,17.3,93,0.00,CLR,,0.00,WeatherDisplay:10.37,2014-10-31 10:53:00,
2014-10-31 05:58:00,31.4,29.3,30.16,North,350,8.0,13.8,92,0.00,CLR,,0.00,WeatherDisplay:10.37,2014-10-31 10:58:00,
2014-10-31 06:03:00,31.5,29.2,30.17,NW,308,7.7,13.8,91,0.00,CLR,,0.00,WeatherDisplay:10.37,2014-10-31 11:03:00,
2014-10-31 06:08:00,31.5,28.9,30.17,West,274,7.8,11.5,90,0.00,CLR,,0.00,WeatherDisplay:10.37,2014-10-31 11:08:00,
2014-10-31 06:13:00,31.6,28.5,30.17,NW,325,11.4,19.6,88,0.00,CLR,,0.00,WeatherDisplay:10.37,2014-10-31 11:13:00,
2014-10-31 06:18:00,31.7,28.3,30.18,North,360,9.9,19.6,87,0.00,CLR,,0.00,WeatherDisplay:10.37,2014-10-31 11:18:00,
2014-10-31 06:23:00,31.9,28.2,30.18,East,96,6.6,13.8,86,0.00,CLR,,0.00,WeatherDisplay:10.37,2014-10-31 11:23:00,
2014-10-31 06:28:00,32.0,28.3,30.18,NNW,347,9.0,21.9,86,0.00,CLR,,0.00,WeatherDisplay:10.37,2014-10-31 11:28:00,
2014-10-31 06:33:00,32.0,28.0,30.19,NNE,25,5.9,13.8,85,0.00,CLR,,0.00,WeatherDisplay:10.37,2014-10-31 11:33:00,
2014-10-31 06:38:00,32.0,27.7,30.19,North,352,8.9,21.9,84,0.00,CLR,,0.00,WeatherDisplay:10.37,2014-10-31 11:38:00,
2014-10-31 06:43:00,32.1,27.8,30.19,North,8,8.8,15.0,84,0.00,CLR,,0.00,WeatherDisplay:10.37,2014-10-31 11:43:00,
2014-10-31 06:48:00,32.0,27.4,30.19,North,3,8.9,18.4,83,0.00,CLR,,0.00,WeatherDisplay:10.37,2014-10-31 11:48:00,
2014-10-31 06:53:00,32.0,27.4,30.20,NNW,332,6.4,11.5,83,0.00,CLR,,0.00,WeatherDisplay:10.37,2014-10-31 11:53:00,
2014-10-31 06:58:00,31.9,27.3,30.20,West,277,8.8,17.3,83,0.00,CLR,,0.00,WeatherDisplay:10.37,2014-10-31 11:58:00,
2014-10-31 07:03:00,31.9,27.3,30.20,WNW,296,7.7,9.2,83,0.00,CLR,,0.00,WeatherDisplay:10.37,2014-10-31 12:03:00,
2014-10-31 07:08:00,31.9,27.0,30.21,NNE,20,3.5,10.4,82,0.00,CLR,,0.00,WeatherDisplay:10.37,2014-10-31 12:08:00,
2014-10-31 07:13:00,31.9,27.0,30.21,North,357,6.8,13.8,82,0.00,CLR,,0.00,WeatherDisplay:10.37,2014-10-31 12:13:00,
2014-10-31 07:18:00,32.0,27.1,30.21,North,352,5.5,12.7,82,0.00,CLR,,0.00,WeatherDisplay:10.37,2014-10-31 12:18:00,
2014-10-31 07:23:00,31.9,27.0,30.22,North,360,4.9,15.0,82,0.00,CLR,,0.00,WeatherDisplay:10.37,2014-10-31 12:23:00,
2014-10-31 07:28:00,31.9,26.7,30.22,ENE,58,9.5,19.6,81,0.00,CLR,,0.00,WeatherDisplay:10.37,2014-10-31 12:28:00,
2014-10-31 07:33:00,31.9,26.1,30.22,NNW,343,11.2,21.6,79,0.00,CLR,,0.00,WeatherDisplay:10.37,2014-10-31 12:33:00,
2014-10-31 07:38:00,31.9,25.8,30.22,NW,323,7.8,18.4,78,0.00,CLR,,0.00,WeatherDisplay:10.37,2014-10-31 12:38:00,
2014-10-31 07:43:00,31.9,25.8,30.22,North,3,7.6,13.4,78,0.00,CLR,,0.00,WeatherDisplay:10.37,2014-10-31 12:43:00,
2014-10-31 07:48:00,31.8,25.7,30.22,NW,323,6.6,12.7,78,0.00,CLR,,0.00,WeatherDisplay:10.37,2014-10-31 12:48:00,
2014-10-31 07:53:00,31.6,25.8,30.22,WNW,284,9.9,16.1,79,0.00,CLR,,0.00,WeatherDisplay:10.37,2014-10-31 12:53:00,
2014-10-31 07:58:00,31.6,25.8,30.22,North,6,6.7,13.1,79,0.00,CLR,,0.00,WeatherDisplay:10.37,2014-10-31 12:58:00,
2014-10-31 08:03:00,31.4,25.3,30.23,WNW,301,8.8,16.1,78,0.00,CLR,,0.00,WeatherDisplay:10.37,2014-10-31 13:03:00,
2014-10-31 08:08:00,31.4,25.3,30.23,North,353,8.9,18.4,78,0.00,CLR,,0.00,WeatherDisplay:10.37,2014-10-31 13:08:00,
2014-10-31 08:13:00,31.3,25.2,30.23,WNW,302,7.5,17.3,78,0.00,CLR,,0.00,WeatherDisplay:10.37,2014-10-31 13:13:00,
2014-10-31 08:18:00,31.3,25.2,30.24,NNE,17,4.3,13.8,78,0.00,CLR,,0.00,WeatherDisplay:10.37,2014-10-31 13:18:00,
2014-10-31 08:23:00,31.3,25.2,30.24,NNW,343,5.6,9.2,78,0.00,CLR,,0.00,WeatherDisplay:10.37,2014-10-31 13:23:00,
2014-10-31 08:28:00,31.3,24.9,30.24,NNE,30,4.5,10.4,77,0.00,CLR,,0.00,WeatherDisplay:10.37,2014-10-31 13:28:00,
2014-10-31 08:33:00,31.3,24.9,30.25,NW,309,4.1,10.4,77,0.00,CLR,,0.00,WeatherDisplay:10.37,2014-10-31 13:33:00,
2014-10-31 08:38:00,31.2,24.8,30.25,NNW,340,7.0,11.5,77,0.00,CLR,,0.00,WeatherDisplay:10.37,2014-10-31 13:38:00,
2014-10-31 08:43:00,31.3,24.9,30.25,NW,322,4.9,8.5,77,0.00,CLR,,0.00,WeatherDisplay:10.37,2014-10-31 13:43:00,
2014-10-31 08:48:00,31.2,24.5,30.25,NNE,14,11.7,23.0,76,0.00,CLR,,0.00,WeatherDisplay:10.37,2014-10-31 13:48:00,